createdAt,value
2018-03-03T00:02:18.103Z,2.86
2018-03-03T00:04:47.208Z,2.88
2018-03-03T00:07:16.439Z,2.98
2018-03-03T00:09:45.950Z,3.01
2018-03-03T00:12:15.178Z,3.06
2018-03-03T00:14:44.589Z,3.13
2018-03-03T00:17:14.252Z,3.13
2018-03-03T00:19:43.417Z,3.11
2018-03-03T00:22:23.945Z,3.08
2018-03-03T00:24:53.140Z,3.03
2018-03-03T00:27:22.423Z,3.00
2018-03-03T00:29:51.929Z,3.01
2018-03-03T00:32:21.114Z,3.06
2018-03-03T00:34:50.806Z,3.03
2018-03-03T00:37:20.334Z,2.96
2018-03-03T00:39:49.465Z,2.93
2018-03-03T00:42:18.564Z,2.98
2018-03-03T00:44:47.995Z,2.98
2018-03-03T00:47:17.389Z,2.99
2018-03-03T00:49:46.643Z,2.89
2018-03-03T00:52:16.073Z,2.88
2018-03-03T00:54:45.248Z,2.84
2018-03-03T00:57:14.637Z,2.87
2018-03-03T00:59:44.006Z,2.94
2018-03-03T01:02:13.237Z,2.95
2018-03-03T01:04:42.641Z,2.85
2018-03-03T01:07:12.185Z,2.78
2018-03-03T01:09:41.621Z,2.87
2018-03-03T01:12:11.208Z,3.51
2018-03-03T01:14:40.711Z,2.97
2018-03-03T01:17:10.019Z,2.85
2018-03-03T01:19:39.217Z,2.83
2018-03-03T01:22:08.448Z,2.72
2018-03-03T01:24:37.767Z,2.66
2018-03-03T01:27:07.737Z,2.73
2018-03-03T01:29:36.921Z,2.67
2018-03-03T01:32:06.455Z,2.58
2018-03-03T01:34:35.717Z,2.68
2018-03-03T01:37:05.225Z,2.61
2018-03-03T01:39:34.277Z,2.67
2018-03-03T01:42:03.476Z,2.62
2018-03-03T01:44:33.041Z,2.62
2018-03-03T01:47:02.141Z,2.69
2018-03-03T01:49:31.341Z,2.73
2018-03-03T01:52:00.737Z,2.84
2018-03-03T01:54:30.195Z,2.82
2018-03-03T01:56:59.561Z,2.86
2018-03-03T01:59:29.157Z,2.81
2018-03-03T02:01:58.245Z,2.70
2018-03-03T02:04:27.339Z,2.82
2018-03-03T02:06:56.789Z,2.93
2018-03-03T02:09:25.999Z,2.89
2018-03-03T02:11:55.229Z,2.83
2018-03-03T02:14:24.229Z,2.87
2018-03-03T02:16:53.355Z,2.93
2018-03-03T02:19:22.601Z,3.02
2018-03-03T02:21:51.737Z,3.16
2018-03-03T02:24:21.076Z,3.27
2018-03-03T02:26:50.253Z,3.82
2018-03-03T02:29:19.486Z,3.32
2018-03-03T02:31:48.830Z,3.30
2018-03-03T02:34:18.181Z,3.71
2018-03-03T02:36:47.454Z,3.37
2018-03-03T02:39:16.931Z,3.41
2018-03-03T02:41:46.177Z,3.62
2018-03-03T02:44:15.522Z,3.57
2018-03-03T02:46:44.784Z,3.48
2018-03-03T02:49:13.888Z,3.45
2018-03-03T02:51:43.381Z,3.24
2018-03-03T02:54:12.802Z,3.20
2018-03-03T02:56:41.962Z,3.16
2018-03-03T02:59:11.382Z,2.94
2018-03-03T03:01:40.686Z,2.85
2018-03-03T03:04:09.885Z,2.85
2018-03-03T03:06:38.997Z,2.72
2018-03-03T03:09:08.117Z,2.66
2018-03-03T03:11:37.205Z,2.62
2018-03-03T03:14:06.477Z,2.61
2018-03-03T03:16:35.776Z,2.60
2018-03-03T03:19:05.030Z,2.51
2018-03-03T03:21:34.529Z,2.56
2018-03-03T03:24:03.782Z,2.53
2018-03-03T03:26:33.079Z,2.50
2018-03-03T03:29:02.619Z,2.63
2018-03-03T03:31:31.961Z,2.53
2018-03-03T03:34:00.945Z,2.48
2018-03-03T03:36:30.377Z,2.48
2018-03-03T03:38:59.741Z,2.58
2018-03-03T03:41:28.946Z,2.57
2018-03-03T03:43:58.436Z,2.64
2018-03-03T03:46:27.886Z,2.60
2018-03-03T03:48:57.117Z,2.57
2018-03-03T03:51:26.548Z,2.58
2018-03-03T03:53:55.892Z,2.83
2018-03-03T03:56:24.993Z,2.59
2018-03-03T03:58:54.695Z,2.66
2018-03-03T04:01:24.044Z,2.94
2018-03-03T04:03:53.025Z,3.12
2018-03-03T04:06:22.396Z,3.01
2018-03-03T04:08:51.577Z,2.88
2018-03-03T04:11:21.159Z,3.10
2018-03-03T04:13:50.461Z,3.07
2018-03-03T04:16:19.949Z,3.05
2018-03-03T04:18:49.021Z,3.09
2018-03-03T04:21:18.314Z,3.17
2018-03-03T04:23:47.376Z,3.33
2018-03-03T04:26:16.762Z,3.31
2018-03-03T04:28:46.077Z,3.11
2018-03-03T04:31:15.571Z,3.25
2018-03-03T04:33:44.773Z,3.25
2018-03-03T04:36:14.401Z,3.27
2018-03-03T04:38:43.753Z,3.32
2018-03-03T04:41:13.277Z,3.40
2018-03-03T04:43:42.541Z,3.51
2018-03-03T04:46:11.531Z,3.46
2018-03-03T04:48:40.787Z,3.71
2018-03-03T04:51:09.805Z,3.93
2018-03-03T04:53:39.150Z,4.11
2018-03-03T04:56:08.285Z,3.94
2018-03-03T04:58:46.186Z,3.95
2018-03-03T05:01:15.921Z,4.09
2018-03-03T05:07:00.873Z,4.19
2018-03-03T05:09:29.855Z,4.07
2018-03-03T05:11:59.001Z,4.22
2018-03-03T05:14:45.188Z,4.63
2018-03-03T05:20:24.847Z,4.74
2018-03-03T05:26:03.631Z,4.52
2018-03-03T05:31:54.547Z,4.63
2018-03-03T05:34:42.955Z,4.88
2018-03-03T05:40:34.815Z,4.97
2018-03-03T05:43:09.857Z,4.91
2018-03-03T05:45:44.540Z,4.91
2018-03-03T05:48:19.330Z,4.94
2018-03-03T05:54:08.685Z,4.78
2018-03-03T05:56:41.470Z,4.55
2018-03-03T06:02:20.897Z,3.90
2018-03-03T06:04:50.777Z,3.87
2018-03-03T06:07:24.555Z,3.91
2018-03-03T06:09:54.360Z,4.00
2018-03-03T06:12:23.781Z,4.09
2018-03-03T06:14:53.224Z,4.42
2018-03-03T06:17:22.598Z,4.78
2018-03-03T06:19:52.346Z,4.87
2018-03-03T06:22:21.731Z,5.07
2018-03-03T06:24:51.217Z,5.13
2018-03-03T06:27:20.514Z,5.16
2018-03-03T06:29:49.819Z,4.83
2018-03-03T06:32:19.235Z,4.92
2018-03-03T06:34:48.629Z,4.80
2018-03-03T06:37:18.139Z,4.69
2018-03-03T06:39:47.553Z,4.78
2018-03-03T06:42:16.719Z,4.98
2018-03-03T06:44:46.079Z,5.31
2018-03-03T06:47:15.633Z,5.20
2018-03-03T06:49:44.693Z,4.94
2018-03-03T06:52:13.920Z,5.46
2018-03-03T06:54:43.325Z,5.53
2018-03-03T06:57:12.316Z,5.73
2018-03-03T06:59:41.618Z,5.78
2018-03-03T07:02:11.123Z,6.07
2018-03-03T07:04:40.421Z,6.18
2018-03-03T07:07:09.734Z,6.28
2018-03-03T07:09:38.863Z,6.55
2018-03-03T07:12:08.182Z,6.59
2018-03-03T07:17:39.187Z,5.83
2018-03-03T07:20:08.401Z,4.95
2018-03-03T07:22:37.603Z,5.07
2018-03-03T07:25:07.197Z,5.20
2018-03-03T07:27:36.535Z,5.48
2018-03-03T07:30:05.587Z,5.46
2018-03-03T07:32:34.707Z,5.45
2018-03-03T07:35:03.593Z,5.66
2018-03-03T07:37:33.016Z,6.27
2018-03-03T07:40:02.403Z,6.07
2018-03-03T07:42:31.773Z,5.91
2018-03-03T07:45:01.081Z,5.96
2018-03-03T07:47:30.444Z,5.81
2018-03-03T07:49:59.803Z,5.72
2018-03-03T07:52:29.195Z,6.05
2018-03-03T07:54:58.543Z,6.26
2018-03-03T07:57:27.809Z,5.92
2018-03-03T07:59:57.007Z,5.76
2018-03-03T08:02:26.211Z,5.55
2018-03-03T08:04:55.363Z,5.89
2018-03-03T08:07:24.844Z,5.76
2018-03-03T08:09:54.171Z,5.83
2018-03-03T08:12:23.505Z,5.90
2018-03-03T08:14:52.798Z,6.19
2018-03-03T08:17:22.225Z,6.92
2018-03-03T08:19:51.207Z,6.22
2018-03-03T08:22:20.238Z,6.22
2018-03-03T08:24:49.203Z,6.59
2018-03-03T08:27:18.573Z,6.63
2018-03-03T08:29:47.761Z,7.14
2018-03-03T08:32:16.983Z,7.17
2018-03-03T08:34:46.223Z,6.97
2018-03-03T08:37:15.462Z,7.08
2018-03-03T08:39:44.765Z,7.25
2018-03-03T08:42:14.065Z,7.03
2018-03-03T08:44:43.470Z,7.03
2018-03-03T08:47:12.512Z,7.02
2018-03-03T08:49:41.585Z,6.98
2018-03-03T08:52:10.862Z,7.10
2018-03-03T08:54:39.990Z,6.94
2018-03-03T08:57:08.961Z,7.13
2018-03-03T08:59:38.163Z,7.27
2018-03-03T09:02:07.473Z,7.48
2018-03-03T09:04:36.872Z,7.52
2018-03-03T09:07:06.309Z,7.65
2018-03-03T09:09:35.369Z,7.49
2018-03-03T09:12:05.061Z,7.23
2018-03-03T09:14:34.425Z,7.06
2018-03-03T09:17:03.511Z,7.21
2018-03-03T09:19:32.712Z,6.91
2018-03-03T09:22:01.857Z,7.08
2018-03-03T09:24:31.262Z,6.71
2018-03-03T09:27:00.537Z,6.55
2018-03-03T09:29:30.032Z,6.29
2018-03-03T09:31:59.159Z,6.09
2018-03-03T09:34:28.565Z,6.10
2018-03-03T09:36:57.805Z,5.83
2018-03-03T09:39:27.174Z,6.04
2018-03-03T09:41:56.571Z,5.77
2018-03-03T09:44:26.102Z,5.77
2018-03-03T09:46:55.585Z,5.92
2018-03-03T09:49:24.836Z,5.91
2018-03-03T09:51:54.058Z,6.10
2018-03-03T09:54:23.447Z,6.26
2018-03-03T09:56:52.873Z,6.65
2018-03-03T09:59:21.941Z,6.96
2018-03-03T10:01:58.933Z,7.07
2018-03-03T10:04:20.458Z,7.35
2018-03-03T10:06:49.398Z,7.43
2018-03-03T10:09:18.566Z,7.75
2018-03-03T10:11:48.117Z,7.39
2018-03-03T10:14:17.085Z,7.65
2018-03-03T10:16:46.285Z,7.60
2018-03-03T10:19:15.547Z,7.69
2018-03-03T10:21:44.965Z,7.81
2018-03-03T10:24:14.275Z,7.65
2018-03-03T10:26:43.288Z,7.55
2018-03-03T10:29:12.645Z,7.46
2018-03-03T10:31:42.131Z,7.22
2018-03-03T10:34:11.393Z,7.05
2018-03-03T10:36:40.352Z,6.95
2018-03-03T10:39:09.425Z,6.99
2018-03-03T10:41:38.870Z,7.04
2018-03-03T10:44:08.102Z,7.03
2018-03-03T10:46:37.667Z,7.15
2018-03-03T10:49:06.851Z,7.27
2018-03-03T10:51:35.945Z,7.27
2018-03-03T10:54:05.557Z,7.41
2018-03-03T10:56:34.506Z,7.54
2018-03-03T10:59:03.903Z,7.65
2018-03-03T11:01:33.085Z,7.93
2018-03-03T11:04:02.370Z,7.89
2018-03-03T11:06:31.649Z,7.96
2018-03-03T11:09:00.745Z,8.27
2018-03-03T11:11:30.121Z,8.04
2018-03-03T11:13:59.290Z,8.26
2018-03-03T11:16:28.619Z,8.26
2018-03-03T11:18:57.732Z,8.55
2018-03-03T11:21:26.975Z,8.65
2018-03-03T11:23:56.058Z,8.93
2018-03-03T11:26:25.047Z,8.70
2018-03-03T11:28:54.114Z,8.64
2018-03-03T11:31:23.395Z,8.76
2018-03-03T11:33:52.517Z,8.77
2018-03-03T11:36:21.704Z,8.55
2018-03-03T11:38:50.965Z,8.76
2018-03-03T11:41:20.233Z,9.02
2018-03-03T11:43:49.538Z,8.72
2018-03-03T11:46:18.755Z,8.68
2018-03-03T11:48:47.932Z,8.84
2018-03-03T11:51:17.010Z,8.98
2018-03-03T11:53:46.437Z,8.84
2018-03-03T11:56:15.692Z,8.94
2018-03-03T11:58:45.191Z,8.83
2018-03-03T12:01:14.433Z,8.70
2018-03-03T12:03:43.495Z,8.61
2018-03-03T12:06:13.086Z,8.60
2018-03-03T12:08:42.370Z,8.58
2018-03-03T12:11:11.906Z,8.38
2018-03-03T12:13:40.874Z,8.44
2018-03-03T12:16:09.959Z,8.48
2018-03-03T12:18:39.153Z,8.62
2018-03-03T12:21:08.445Z,8.61
2018-03-03T12:23:38.045Z,8.79
2018-03-03T12:26:07.451Z,8.88
2018-03-03T12:28:36.788Z,9.10
2018-03-03T12:31:06.685Z,9.23
2018-03-03T12:33:35.698Z,9.33
2018-03-03T12:36:04.633Z,9.50
2018-03-03T12:38:33.845Z,9.47
2018-03-03T12:41:03.161Z,9.77
2018-03-03T12:43:32.369Z,10.09
2018-03-03T12:46:01.479Z,9.91
2018-03-03T12:48:30.941Z,9.89
2018-03-03T12:50:59.891Z,10.07
2018-03-03T12:53:29.109Z,10.43
2018-03-03T12:55:58.250Z,10.29
2018-03-03T12:58:27.652Z,10.26
2018-03-03T13:00:56.605Z,10.40
2018-03-03T13:03:25.521Z,10.40
2018-03-03T13:05:54.641Z,10.34
2018-03-03T13:08:23.901Z,10.15
2018-03-03T13:10:53.171Z,10.17
2018-03-03T13:13:22.483Z,10.10
2018-03-03T13:15:51.613Z,10.05
2018-03-03T13:18:21.081Z,10.14
2018-03-03T13:20:50.739Z,10.48
2018-03-03T13:23:20.203Z,10.43
2018-03-03T13:25:49.609Z,10.63
2018-03-03T13:28:18.795Z,10.55
2018-03-03T13:30:48.147Z,10.61
2018-03-03T13:33:17.561Z,10.52
2018-03-03T13:35:47.493Z,10.54
2018-03-03T13:38:17.053Z,10.52
2018-03-03T13:40:46.098Z,10.66
2018-03-03T13:43:15.729Z,10.84
2018-03-03T13:45:44.923Z,10.92
2018-03-03T13:48:14.104Z,10.99
2018-03-03T13:50:43.073Z,10.99
2018-03-03T13:53:12.221Z,10.97
2018-03-03T13:55:41.606Z,11.08
2018-03-03T13:58:10.820Z,10.85
2018-03-03T14:00:40.157Z,10.91
2018-03-03T14:03:09.544Z,10.88
2018-03-03T14:05:38.905Z,10.98
2018-03-03T14:08:08.373Z,11.14
2018-03-03T14:10:37.827Z,11.28
2018-03-03T14:13:07.477Z,11.08
2018-03-03T14:15:36.534Z,11.27
2018-03-03T14:18:05.879Z,11.30
2018-03-03T14:20:35.396Z,11.15
2018-03-03T14:23:04.885Z,11.14
2018-03-03T14:25:34.539Z,11.01
2018-03-03T14:28:03.897Z,11.07
2018-03-03T14:30:33.202Z,11.05
2018-03-03T14:33:02.565Z,11.14
2018-03-03T14:35:31.554Z,11.28
2018-03-03T14:38:01.101Z,11.16
2018-03-03T14:40:30.325Z,11.15
2018-03-03T14:42:59.631Z,11.16
2018-03-03T14:45:28.845Z,11.25
2018-03-03T14:47:57.752Z,11.15
2018-03-03T14:50:27.180Z,11.06
2018-03-03T14:52:56.270Z,11.04
2018-03-03T14:55:25.493Z,11.04
2018-03-03T14:57:54.740Z,10.88
2018-03-03T15:00:23.668Z,11.00
2018-03-03T15:02:52.933Z,11.07
2018-03-03T15:05:22.240Z,11.00
2018-03-03T15:07:51.217Z,10.96
2018-03-03T15:10:20.518Z,11.21
2018-03-03T15:12:49.885Z,11.13
2018-03-03T15:15:19.086Z,11.32
2018-03-03T15:17:48.481Z,11.35
2018-03-03T15:20:17.834Z,11.25
2018-03-03T15:22:46.909Z,11.14
2018-03-03T15:25:16.314Z,11.12
2018-03-03T15:27:46.492Z,11.22
2018-03-03T15:30:15.619Z,11.12
2018-03-03T15:32:44.901Z,11.24
2018-03-03T15:35:13.939Z,11.74
2018-03-03T15:37:42.950Z,12.19
2018-03-03T15:40:12.501Z,12.38
2018-03-03T15:42:41.809Z,12.25
2018-03-03T15:45:11.031Z,12.19
2018-03-03T15:47:40.318Z,11.78
2018-03-03T15:50:09.561Z,11.05
2018-03-03T15:52:38.640Z,10.62
2018-03-03T15:55:07.869Z,10.48
2018-03-03T15:57:37.215Z,10.23
2018-03-03T16:00:06.547Z,9.92
2018-03-03T16:02:35.902Z,9.84
2018-03-03T16:05:04.989Z,9.80
2018-03-03T16:07:34.113Z,9.70
2018-03-03T16:10:03.334Z,10.24
2018-03-03T16:12:32.708Z,10.11
2018-03-03T16:15:01.941Z,10.39
2018-03-03T16:17:31.114Z,9.90
2018-03-03T16:20:00.523Z,10.37
2018-03-03T16:22:29.499Z,10.10
2018-03-03T16:24:59.109Z,10.25
2018-03-03T16:27:28.235Z,10.10
2018-03-03T16:29:57.448Z,9.94
2018-03-03T16:32:26.665Z,9.87
2018-03-03T16:34:55.619Z,9.74
2018-03-03T16:37:24.812Z,9.39
2018-03-03T16:39:54.061Z,9.19
2018-03-03T16:42:23.413Z,9.09
2018-03-03T16:44:52.503Z,9.10
2018-03-03T16:47:21.781Z,9.07
2018-03-03T16:49:51.185Z,9.12
2018-03-03T16:52:20.494Z,9.10
2018-03-03T16:54:49.794Z,9.13
2018-03-03T16:57:19.106Z,9.05
2018-03-03T16:59:48.317Z,8.86
2018-03-03T17:02:17.665Z,8.66
2018-03-03T17:04:46.887Z,8.48
2018-03-03T17:07:16.784Z,8.29
2018-03-03T17:09:46.141Z,8.15
2018-03-03T17:12:15.767Z,8.22
2018-03-03T17:14:45.934Z,8.07
2018-03-03T17:17:15.141Z,8.00
2018-03-03T17:19:44.607Z,7.93
2018-03-03T17:22:13.708Z,7.87
2018-03-03T17:24:43.041Z,7.85
2018-03-03T17:27:12.313Z,7.91
2018-03-03T17:29:41.698Z,7.74
2018-03-03T17:32:11.110Z,7.66
2018-03-03T17:34:40.342Z,7.76
2018-03-03T17:37:09.530Z,7.84
2018-03-03T17:39:39.001Z,8.02
2018-03-03T17:42:08.207Z,7.76
2018-03-03T17:44:37.400Z,7.62
2018-03-03T17:47:06.499Z,7.61
2018-03-03T17:49:35.751Z,7.54
2018-03-03T17:52:04.887Z,7.49
2018-03-03T17:54:33.990Z,7.55
2018-03-03T17:57:03.545Z,7.65
2018-03-03T17:59:32.671Z,7.68
2018-03-03T18:02:01.961Z,7.98
2018-03-03T18:04:31.137Z,8.03
2018-03-03T18:07:00.194Z,7.90
2018-03-03T18:09:29.785Z,7.77
2018-03-03T18:11:59.875Z,7.79
2018-03-03T18:14:29.229Z,7.65
2018-03-03T18:16:58.360Z,7.53
2018-03-03T18:19:36.011Z,7.67
2018-03-03T18:22:05.964Z,7.89
2018-03-03T18:24:37.431Z,7.98
2018-03-03T18:27:08.475Z,7.89
2018-03-03T18:29:37.698Z,8.15
2018-03-03T18:32:06.821Z,7.98
2018-03-03T18:34:36.157Z,8.03
2018-03-03T18:37:05.503Z,7.70
2018-03-03T18:39:35.298Z,7.42
2018-03-03T18:42:04.435Z,7.30
2018-03-03T18:44:33.532Z,7.31
2018-03-03T18:47:03.069Z,7.08
2018-03-03T18:49:32.173Z,6.94
2018-03-03T18:52:01.207Z,6.81
2018-03-03T18:54:30.375Z,6.72
2018-03-03T18:56:59.769Z,6.68
2018-03-03T18:59:28.738Z,6.84
2018-03-03T19:01:57.847Z,7.10
2018-03-03T19:04:27.180Z,6.86
2018-03-03T19:06:56.425Z,6.74
2018-03-03T19:09:25.704Z,6.72
2018-03-03T19:11:55.052Z,6.79
2018-03-03T19:14:24.298Z,7.77
2018-03-03T19:16:53.449Z,8.26
2018-03-03T19:19:22.543Z,8.19
2018-03-03T19:21:51.674Z,8.23
2018-03-03T19:24:20.917Z,8.39
2018-03-03T19:26:50.151Z,8.25
2018-03-03T19:29:19.438Z,7.77
2018-03-03T19:31:48.767Z,8.00
2018-03-03T19:34:17.841Z,8.03
2018-03-03T19:36:46.949Z,7.93
2018-03-03T19:39:16.011Z,7.61
2018-03-03T19:41:45.244Z,7.91
2018-03-03T19:44:14.558Z,8.26
2018-03-03T19:46:43.671Z,8.40
2018-03-03T19:49:12.641Z,8.04
2018-03-03T19:51:41.870Z,7.75
2018-03-03T19:54:11.231Z,8.25
2018-03-03T19:56:40.726Z,8.52
2018-03-03T19:59:10.139Z,8.51
2018-03-03T20:01:39.475Z,8.46
2018-03-03T20:04:08.553Z,8.30
2018-03-03T20:06:37.650Z,7.82
2018-03-03T20:09:06.679Z,7.62
2018-03-03T20:11:35.909Z,7.13
2018-03-03T20:14:04.971Z,6.95
2018-03-03T20:16:34.038Z,6.93
2018-03-03T20:19:03.006Z,6.70
2018-03-03T20:21:32.110Z,6.59
2018-03-03T20:24:01.471Z,6.54
2018-03-03T20:26:30.694Z,6.44
2018-03-03T20:28:59.693Z,6.40
2018-03-03T20:31:28.866Z,6.37
2018-03-03T20:33:58.295Z,6.42
2018-03-03T20:36:27.249Z,6.50
2018-03-03T20:38:56.581Z,6.53
2018-03-03T20:41:25.930Z,6.96
2018-03-03T20:43:55.117Z,6.78
2018-03-03T20:46:24.357Z,6.64
2018-03-03T20:48:53.655Z,6.71
2018-03-03T20:51:22.942Z,7.12
2018-03-03T20:53:52.202Z,7.53
2018-03-03T20:56:21.453Z,7.34
2018-03-03T20:58:50.587Z,7.44
2018-03-03T21:01:19.713Z,7.90
2018-03-03T21:03:48.945Z,7.75
2018-03-03T21:06:17.951Z,7.52
2018-03-03T21:08:46.997Z,7.34
2018-03-03T21:11:20.090Z,7.65
2018-03-03T21:13:49.403Z,7.91
2018-03-03T21:16:18.365Z,8.31
2018-03-03T21:18:47.685Z,8.36
2018-03-03T21:21:16.815Z,8.25
2018-03-03T21:23:45.913Z,8.07
2018-03-03T21:26:15.027Z,7.99
2018-03-03T21:28:44.013Z,8.03
2018-03-03T21:31:13.455Z,7.72
2018-03-03T21:33:42.755Z,7.35
2018-03-03T21:36:12.286Z,7.07
2018-03-03T21:38:41.917Z,6.89
2018-03-03T21:41:11.253Z,7.18
2018-03-03T21:43:40.634Z,7.07
2018-03-03T21:46:09.745Z,6.96
2018-03-03T21:48:39.015Z,6.56
2018-03-03T21:51:08.269Z,6.21
2018-03-03T21:53:37.545Z,6.44
2018-03-03T21:56:06.648Z,6.44
2018-03-03T21:58:35.676Z,6.89
2018-03-03T22:01:04.877Z,6.56
2018-03-03T22:03:33.946Z,6.61
2018-03-03T22:06:02.967Z,6.76
2018-03-03T22:08:32.121Z,6.61
2018-03-03T22:11:01.185Z,6.77
2018-03-03T22:13:30.838Z,6.96
2018-03-03T22:16:00.233Z,6.51
2018-03-03T22:18:29.529Z,6.34
2018-03-03T22:20:59.240Z,6.58
2018-03-03T22:23:28.719Z,6.20
2018-03-03T22:25:57.913Z,6.30
2018-03-03T22:28:27.345Z,6.33
2018-03-03T22:30:56.635Z,6.77
2018-03-03T22:33:25.848Z,6.89
2018-03-03T22:35:55.129Z,6.75
2018-03-03T22:38:24.480Z,6.13
2018-03-03T22:40:53.655Z,5.82
2018-03-03T22:43:22.737Z,5.79
2018-03-03T22:45:51.975Z,6.51
2018-03-03T22:48:21.342Z,6.35
2018-03-03T22:50:50.439Z,6.19
2018-03-03T22:53:19.845Z,6.74
2018-03-03T22:55:49.050Z,6.25
2018-03-03T22:58:17.997Z,5.96
2018-03-03T23:00:47.785Z,5.76
2018-03-03T23:03:17.110Z,5.46
2018-03-03T23:05:46.198Z,5.13
2018-03-03T23:08:15.276Z,5.36
2018-03-03T23:10:44.547Z,4.93
2018-03-03T23:13:13.739Z,4.66
2018-03-03T23:15:43.036Z,4.49
2018-03-03T23:18:12.237Z,4.49
2018-03-03T23:20:41.797Z,4.55
2018-03-03T23:23:11.249Z,4.68
2018-03-03T23:25:40.454Z,4.64
2018-03-03T23:28:09.649Z,4.57
2018-03-03T23:30:38.837Z,4.56
2018-03-03T23:33:08.151Z,4.51
2018-03-03T23:35:37.233Z,4.89
2018-03-03T23:38:06.744Z,5.02
2018-03-03T23:40:36.055Z,4.88
2018-03-03T23:43:05.197Z,4.93
2018-03-03T23:45:34.452Z,4.89
2018-03-03T23:48:03.741Z,4.87
2018-03-03T23:50:33.041Z,4.81
2018-03-03T23:53:02.461Z,4.84
2018-03-03T23:55:31.641Z,5.29
2018-03-03T23:58:01.107Z,5.06
